createdAt,value
2023-03-26T00:00:09.275Z,0.70
2023-03-26T00:02:39.750Z,0.80
2023-03-26T00:05:07.617Z,0.90
2023-03-26T00:07:34.998Z,0.70
2023-03-26T00:10:02.155Z,1.10
2023-03-26T00:12:29.250Z,0.70
2023-03-26T00:14:56.912Z,0.90
2023-03-26T00:17:24.109Z,0.77
2023-03-26T00:19:53.525Z,0.60
2023-03-26T00:22:20.644Z,0.83
2023-03-26T00:24:49.344Z,0.73
2023-03-26T00:27:17.423Z,0.77
2023-03-26T00:29:44.781Z,0.83
2023-03-26T00:32:11.866Z,0.77
2023-03-26T00:34:41.384Z,0.73
2023-03-26T00:37:08.813Z,0.73
2023-03-26T00:39:37.331Z,0.60
2023-03-26T00:42:08.116Z,0.80
2023-03-26T00:44:35.488Z,0.50
2023-03-26T00:47:03.570Z,0.50
2023-03-26T00:49:31.924Z,0.47
2023-03-26T00:51:59.022Z,0.73
2023-03-26T00:54:27.056Z,0.70
2023-03-26T00:56:55.897Z,0.80
2023-03-26T00:59:23.551Z,0.60
2023-03-26T01:01:51.227Z,0.93
2023-03-26T01:04:24.048Z,0.50
2023-03-26T01:06:51.383Z,0.60
2023-03-26T01:09:19.646Z,0.50
2023-03-26T01:11:47.460Z,0.37
2023-03-26T01:14:19.760Z,0.40
2023-03-26T01:16:49.941Z,0.50
2023-03-26T01:19:25.831Z,0.60
2023-03-26T01:21:52.907Z,0.47
2023-03-26T01:24:20.708Z,0.53
2023-03-26T01:27:04.300Z,0.60
2023-03-26T01:29:33.842Z,0.73
2023-03-26T01:32:09.413Z,0.77
2023-03-26T01:34:47.052Z,0.50
2023-03-26T01:37:14.318Z,0.57
2023-03-26T01:39:49.610Z,0.50
2023-03-26T01:42:21.368Z,0.50
2023-03-26T01:44:48.446Z,0.70
2023-03-26T01:47:16.194Z,0.40
2023-03-26T01:49:43.233Z,0.30
2023-03-26T01:52:18.280Z,0.50
2023-03-26T01:54:46.505Z,0.30
2023-03-26T01:57:13.692Z,0.37
2023-03-26T01:59:46.531Z,0.40
2023-03-26T02:02:14.183Z,0.37
2023-03-26T02:04:44.442Z,0.40
2023-03-26T02:07:14.671Z,0.40
2023-03-26T02:09:47.596Z,0.60
2023-03-26T02:12:15.387Z,0.30
2023-03-26T02:14:43.035Z,0.43
2023-03-26T02:17:10.829Z,0.60
2023-03-26T02:19:42.048Z,0.20
2023-03-26T02:22:11.169Z,0.40
2023-03-26T02:24:38.859Z,0.50
2023-03-26T02:27:07.788Z,0.50
2023-03-26T02:29:38.168Z,0.40
2023-03-26T02:32:05.846Z,0.33
2023-03-26T02:34:33.344Z,0.43
2023-03-26T02:37:00.802Z,0.37
2023-03-26T02:39:28.152Z,0.40
2023-03-26T02:41:55.455Z,0.50
2023-03-26T02:44:22.573Z,0.40
2023-03-26T02:46:49.646Z,0.57
2023-03-26T02:49:16.852Z,0.53
2023-03-26T02:51:43.954Z,0.53
2023-03-26T02:54:10.989Z,0.53
2023-03-26T02:56:38.207Z,0.40
2023-03-26T02:59:05.748Z,0.50
2023-03-26T03:01:35.043Z,0.50
2023-03-26T03:04:04.198Z,0.37
2023-03-26T03:06:32.421Z,0.47
2023-03-26T03:08:59.507Z,0.30
2023-03-26T03:11:26.606Z,0.33
2023-03-26T03:13:54.196Z,0.40
2023-03-26T03:16:21.644Z,0.40
2023-03-26T03:18:57.456Z,0.40
2023-03-26T03:21:26.240Z,0.40
2023-03-26T03:23:54.209Z,0.50
2023-03-26T03:26:22.748Z,0.43
2023-03-26T03:28:50.696Z,0.50
2023-03-26T03:31:18.576Z,0.50
2023-03-26T03:33:46.427Z,0.67
2023-03-26T03:36:21.035Z,0.47
2023-03-26T03:38:49.173Z,0.63
2023-03-26T03:41:18.390Z,0.57
2023-03-26T03:43:45.913Z,0.40
2023-03-26T03:46:13.130Z,0.50
2023-03-26T03:48:40.287Z,0.47
2023-03-26T03:51:07.527Z,0.50
2023-03-26T03:53:37.166Z,0.50
2023-03-26T03:56:10.031Z,0.40
2023-03-26T03:58:37.448Z,0.47
2023-03-26T04:01:04.707Z,0.60
2023-03-26T04:03:33.331Z,0.50
2023-03-26T04:06:01.428Z,0.40
2023-03-26T04:08:28.546Z,0.50
2023-03-26T04:10:55.693Z,0.40
2023-03-26T04:13:22.806Z,0.60
2023-03-26T04:15:49.972Z,0.50
2023-03-26T04:18:17.164Z,0.60
2023-03-26T04:20:49.224Z,0.70
2023-03-26T04:23:18.158Z,0.60
2023-03-26T04:25:48.384Z,0.60
2023-03-26T04:28:20.907Z,0.67
2023-03-26T04:30:48.901Z,0.70
2023-03-26T04:33:16.022Z,0.47
2023-03-26T04:35:44.857Z,0.50
2023-03-26T04:38:12.510Z,0.43
2023-03-26T04:40:39.664Z,0.50
2023-03-26T04:43:06.790Z,0.47
2023-03-26T04:45:33.927Z,0.70
2023-03-26T04:48:02.265Z,0.53
2023-03-26T04:50:29.471Z,0.53
2023-03-26T04:52:58.230Z,0.57
2023-03-26T04:55:28.515Z,0.50
2023-03-26T04:57:57.819Z,0.43
2023-03-26T05:00:25.386Z,0.70
2023-03-26T05:02:53.882Z,0.30
2023-03-26T05:05:21.159Z,0.50
2023-03-26T05:07:48.207Z,0.50
2023-03-26T05:10:16.076Z,0.50
2023-03-26T05:12:43.158Z,0.50
2023-03-26T05:15:12.025Z,0.40
2023-03-26T05:17:41.947Z,0.50
2023-03-26T05:20:18.218Z,0.60
2023-03-26T05:22:45.387Z,0.90
2023-03-26T05:25:12.598Z,0.70
2023-03-26T05:27:39.729Z,0.50
2023-03-26T05:30:07.378Z,0.67
2023-03-26T05:32:34.955Z,0.60
2023-03-26T05:35:02.845Z,0.57
2023-03-26T05:37:31.058Z,0.60
2023-03-26T05:39:59.420Z,0.67
2023-03-26T05:42:26.721Z,0.70
2023-03-26T05:44:53.949Z,0.73
2023-03-26T05:47:21.065Z,0.90
2023-03-26T05:49:48.136Z,0.80
2023-03-26T05:52:18.853Z,0.97
2023-03-26T05:54:45.963Z,0.70
2023-03-26T05:57:13.138Z,0.60
2023-03-26T05:59:40.359Z,0.70
2023-03-26T06:02:07.624Z,0.90
2023-03-26T06:04:34.853Z,0.70
2023-03-26T06:07:02.237Z,0.87
2023-03-26T06:09:29.538Z,0.90
2023-03-26T06:11:56.671Z,0.83
2023-03-26T06:14:23.717Z,0.70
2023-03-26T06:16:50.840Z,1.00
2023-03-26T06:19:18.399Z,0.80
2023-03-26T06:21:45.789Z,0.70
2023-03-26T06:24:12.956Z,1.00
2023-03-26T06:26:40.375Z,0.60
2023-03-26T06:29:07.532Z,0.83
2023-03-26T06:31:34.767Z,0.73
2023-03-26T06:34:01.910Z,0.87
2023-03-26T06:36:29.043Z,0.70
2023-03-26T06:38:56.340Z,0.70
2023-03-26T06:41:23.431Z,0.63
2023-03-26T06:43:50.705Z,0.60
2023-03-26T06:46:18.621Z,0.50
2023-03-26T06:48:45.838Z,0.60
2023-03-26T06:51:12.981Z,0.70
2023-03-26T06:53:40.239Z,0.63
2023-03-26T06:56:09.115Z,0.60
2023-03-26T06:58:36.392Z,0.60
2023-03-26T07:01:03.521Z,0.70
2023-03-26T07:03:30.585Z,0.67
2023-03-26T07:05:57.736Z,0.80
2023-03-26T07:08:26.428Z,0.50
2023-03-26T07:10:53.796Z,0.50
2023-03-26T07:13:21.283Z,0.87
2023-03-26T07:15:49.501Z,0.90
2023-03-26T07:18:16.621Z,0.80
2023-03-26T07:20:45.178Z,0.67
2023-03-26T07:23:15.497Z,0.80
2023-03-26T07:25:42.908Z,0.80
2023-03-26T07:28:28.241Z,1.00
2023-03-26T07:31:13.562Z,1.13
2023-03-26T07:33:48.744Z,1.30
2023-03-26T07:36:18.697Z,1.57
2023-03-26T07:39:04.312Z,1.37
2023-03-26T07:41:43.607Z,1.10
2023-03-26T07:44:11.515Z,0.77
2023-03-26T07:46:39.310Z,1.07
2023-03-26T07:49:06.642Z,0.80
2023-03-26T07:51:33.939Z,0.80
2023-03-26T07:54:04.008Z,0.73
2023-03-26T07:56:34.021Z,0.70
2023-03-26T07:59:07.194Z,0.80
2023-03-26T08:01:37.029Z,0.73
2023-03-26T08:04:23.816Z,0.70
2023-03-26T08:07:05.722Z,0.80
2023-03-26T08:09:39.152Z,0.80
2023-03-26T08:12:15.202Z,0.80
2023-03-26T08:14:51.585Z,0.77
2023-03-26T08:17:24.326Z,0.90
2023-03-26T08:19:54.261Z,0.73
2023-03-26T08:22:26.138Z,0.80
2023-03-26T08:25:05.383Z,1.07
2023-03-26T08:27:38.420Z,1.10
2023-03-26T08:30:08.342Z,0.80
2023-03-26T08:32:35.599Z,1.10
2023-03-26T08:35:04.349Z,1.00
2023-03-26T08:37:31.604Z,1.10
2023-03-26T08:39:58.721Z,1.10
2023-03-26T08:42:37.716Z,1.10
2023-03-26T08:45:04.776Z,1.40
2023-03-26T08:47:47.314Z,1.00
2023-03-26T08:50:14.530Z,1.00
2023-03-26T08:52:53.809Z,1.03
2023-03-26T08:55:28.963Z,1.00
2023-03-26T08:58:03.502Z,1.13
2023-03-26T09:00:46.119Z,0.87
2023-03-26T09:03:19.190Z,1.13
2023-03-26T09:06:04.829Z,1.00
2023-03-26T09:08:54.258Z,0.97
2023-03-26T09:11:34.112Z,0.90
2023-03-26T09:14:19.745Z,0.87
2023-03-26T09:16:46.904Z,1.10
2023-03-26T09:19:19.846Z,0.83
2023-03-26T09:21:56.055Z,0.90
2023-03-26T09:24:48.509Z,1.00
2023-03-26T09:27:21.478Z,0.70
2023-03-26T09:30:07.199Z,1.10
2023-03-26T09:32:52.509Z,1.07
2023-03-26T09:35:40.304Z,0.77
2023-03-26T09:38:10.585Z,0.73
2023-03-26T09:40:43.758Z,0.67
2023-03-26T09:43:26.350Z,1.30
2023-03-26T09:45:59.294Z,1.10
2023-03-26T09:48:26.754Z,1.03
2023-03-26T09:51:12.678Z,1.47
2023-03-26T09:53:58.918Z,1.03
2023-03-26T09:56:26.555Z,1.20
2023-03-26T09:59:11.043Z,1.23
2023-03-26T10:01:44.737Z,1.20
2023-03-26T10:04:33.010Z,1.10
2023-03-26T10:07:06.017Z,1.03
2023-03-26T10:09:39.219Z,0.93
2023-03-26T10:12:20.723Z,0.80
2023-03-26T10:14:50.628Z,0.90
2023-03-26T10:17:26.650Z,1.10
2023-03-26T10:20:12.961Z,0.90
2023-03-26T10:22:52.234Z,1.00
2023-03-26T10:25:37.498Z,0.93
2023-03-26T10:28:10.616Z,0.90
2023-03-26T10:30:37.756Z,0.80
2023-03-26T10:33:25.102Z,0.90
2023-03-26T10:36:11.354Z,0.80
2023-03-26T10:38:53.865Z,0.90
2023-03-26T10:41:38.986Z,3.60
2023-03-26T10:44:15.014Z,1.50
2023-03-26T10:46:53.460Z,2.33
2023-03-26T10:49:35.750Z,1.50
2023-03-26T10:52:07.380Z,1.10
2023-03-26T10:54:37.248Z,1.00
2023-03-26T10:57:10.835Z,1.07
2023-03-26T10:59:37.959Z,0.80
2023-03-26T11:02:11.014Z,1.10
2023-03-26T11:04:50.557Z,0.90
2023-03-26T11:07:32.815Z,0.90
2023-03-26T11:09:59.916Z,0.97
2023-03-26T11:12:33.983Z,1.30
2023-03-26T11:15:13.112Z,1.10
2023-03-26T11:17:56.228Z,1.10
2023-03-26T11:20:29.599Z,0.97
2023-03-26T11:23:15.252Z,0.67
2023-03-26T11:25:59.303Z,1.10
2023-03-26T11:28:37.349Z,0.97
2023-03-26T11:31:04.524Z,0.80
2023-03-26T11:33:36.556Z,0.77
2023-03-26T11:36:07.902Z,1.00
2023-03-26T11:38:37.795Z,0.83
2023-03-26T11:41:11.403Z,0.67
2023-03-26T11:43:38.474Z,1.13
2023-03-26T11:46:08.155Z,0.90
2023-03-26T11:48:44.419Z,0.83
2023-03-26T11:51:34.806Z,0.90
2023-03-26T11:54:03.090Z,0.90
2023-03-26T11:56:34.601Z,1.23
2023-03-26T11:59:07.521Z,0.97
2023-03-26T12:02:01.395Z,0.90
2023-03-26T12:04:30.737Z,1.00
2023-03-26T12:07:07.741Z,1.00
2023-03-26T12:09:34.777Z,0.83
2023-03-26T12:12:03.526Z,0.73
2023-03-26T12:14:32.956Z,0.80
2023-03-26T12:17:02.944Z,0.80
2023-03-26T12:19:36.197Z,0.90
2023-03-26T12:22:03.296Z,0.90
2023-03-26T12:24:34.506Z,0.63
2023-03-26T12:27:02.202Z,0.87
2023-03-26T12:29:34.222Z,0.87
2023-03-26T12:32:07.079Z,0.90
2023-03-26T12:34:36.250Z,0.63
2023-03-26T12:37:04.168Z,0.73
2023-03-26T12:40:07.521Z,0.63
2023-03-26T12:44:46.870Z,0.90
2023-03-26T12:45:23.672Z,0.70
2023-03-26T12:47:58.657Z,0.90
2023-03-26T12:50:36.469Z,0.97
2023-03-26T12:53:03.643Z,0.73
2023-03-26T12:55:38.810Z,1.00
2023-03-26T12:58:28.942Z,0.80
2023-03-26T13:01:02.400Z,0.77
2023-03-26T13:03:30.631Z,0.93
2023-03-26T13:05:57.765Z,0.93
2023-03-26T13:08:24.810Z,1.20
2023-03-26T13:10:55.620Z,1.07
2023-03-26T13:13:44.152Z,0.80
2023-03-26T13:16:25.522Z,0.93
2023-03-26T13:19:02.107Z,1.07
2023-03-26T13:21:29.141Z,1.10
2023-03-26T13:23:56.222Z,1.17
2023-03-26T13:26:38.703Z,0.93
2023-03-26T13:29:15.824Z,1.20
2023-03-26T13:31:49.733Z,1.30
2023-03-26T13:34:52.190Z,1.27
2023-03-26T13:37:32.829Z,1.00
2023-03-26T13:40:24.843Z,1.07
2023-03-26T13:43:01.734Z,1.07
2023-03-26T13:45:31.766Z,0.97
2023-03-26T13:47:59.963Z,1.00
2023-03-26T13:50:27.064Z,0.97
2023-03-26T13:52:56.932Z,0.70
2023-03-26T13:55:43.210Z,0.80
2023-03-26T13:58:13.047Z,0.70
2023-03-26T14:00:41.835Z,1.00
2023-03-26T14:03:13.667Z,1.10
2023-03-26T14:05:44.325Z,0.87
2023-03-26T14:08:20.973Z,0.87
2023-03-26T14:10:51.452Z,0.50
2023-03-26T14:13:21.478Z,0.70
2023-03-26T14:16:07.537Z,0.57
2023-03-26T14:18:43.800Z,0.70
2023-03-26T14:21:22.953Z,0.80
2023-03-26T14:24:25.380Z,0.50
2023-03-26T14:27:05.378Z,0.80
2023-03-26T14:29:56.856Z,0.60
2023-03-26T14:32:33.700Z,0.70
2023-03-26T14:35:12.928Z,0.60
2023-03-26T14:37:42.810Z,0.70
2023-03-26T14:40:28.655Z,0.50
2023-03-26T14:43:14.508Z,0.67
2023-03-26T14:45:52.069Z,0.70
2023-03-26T14:48:22.270Z,0.90
2023-03-26T14:50:50.375Z,0.80
2023-03-26T14:53:29.014Z,0.57
2023-03-26T14:56:08.320Z,0.93
2023-03-26T14:58:54.043Z,0.80
2023-03-26T15:01:25.210Z,0.63
2023-03-26T15:04:01.641Z,0.70
2023-03-26T15:06:45.164Z,0.60
2023-03-26T15:09:40.343Z,0.70
2023-03-26T15:12:28.026Z,0.67
2023-03-26T15:15:14.079Z,0.77
2023-03-26T15:17:52.723Z,0.60
2023-03-26T15:20:38.369Z,0.83
2023-03-26T15:23:24.149Z,0.77
2023-03-26T15:26:09.836Z,0.60
2023-03-26T15:28:51.288Z,0.70
2023-03-26T15:31:18.615Z,0.70
2023-03-26T15:34:01.485Z,0.90
2023-03-26T15:36:34.616Z,0.60
2023-03-26T15:39:01.651Z,0.60
2023-03-26T15:41:50.698Z,0.67
2023-03-26T15:44:36.149Z,0.70
2023-03-26T15:47:17.219Z,0.60
2023-03-26T15:49:49.929Z,0.70
2023-03-26T15:52:49.724Z,0.60
2023-03-26T15:55:16.901Z,0.50
2023-03-26T15:57:47.520Z,0.50
2023-03-26T16:00:22.838Z,0.53
2023-03-26T16:02:50.485Z,0.50
2023-03-26T16:05:24.168Z,0.47
2023-03-26T16:07:58.705Z,0.50
2023-03-26T16:10:46.078Z,0.70
2023-03-26T16:13:31.786Z,0.80
2023-03-26T16:16:06.847Z,0.70
2023-03-26T16:18:35.933Z,0.70
2023-03-26T16:21:31.593Z,1.10
2023-03-26T16:24:02.779Z,1.40
2023-03-26T16:26:45.488Z,0.90
2023-03-26T16:29:16.549Z,0.70
2023-03-26T16:31:59.235Z,1.50
2023-03-26T16:34:29.082Z,1.20
2023-03-26T16:36:56.755Z,1.60
2023-03-26T16:39:25.412Z,1.33
2023-03-26T16:42:05.594Z,1.10
2023-03-26T16:44:50.332Z,0.77
2023-03-26T16:47:24.524Z,1.40
2023-03-26T16:50:09.058Z,1.40
2023-03-26T16:52:36.566Z,1.20
2023-03-26T16:55:07.149Z,1.20
2023-03-26T16:57:42.288Z,1.13
2023-03-26T17:00:30.602Z,1.10
2023-03-26T17:03:06.185Z,1.13
2023-03-26T17:05:52.767Z,1.30
2023-03-26T17:08:35.939Z,1.40
2023-03-26T17:11:09.877Z,2.27
2023-03-26T17:13:36.926Z,2.20
2023-03-26T17:16:13.264Z,1.70
2023-03-26T17:18:43.423Z,2.40
2023-03-26T17:21:20.706Z,4.07
2023-03-26T17:23:47.727Z,3.40
2023-03-26T17:26:26.870Z,3.10
2023-03-26T17:28:56.772Z,2.57
2023-03-26T17:31:26.751Z,1.37
2023-03-26T17:33:54.352Z,1.73
2023-03-26T17:36:28.754Z,1.90
2023-03-26T17:39:19.456Z,1.53
2023-03-26T17:41:51.182Z,3.60
2023-03-26T17:44:36.760Z,2.07
2023-03-26T17:47:05.526Z,2.10
2023-03-26T17:49:34.142Z,2.87
2023-03-26T17:52:17.252Z,2.47
2023-03-26T17:54:46.881Z,2.33
2023-03-26T17:57:14.102Z,2.43
2023-03-26T17:59:42.481Z,1.93
2023-03-26T18:02:14.463Z,2.07
2023-03-26T18:04:45.478Z,2.13
2023-03-26T18:07:31.753Z,2.10
2023-03-26T18:10:17.586Z,1.73
2023-03-26T18:12:53.868Z,1.90
2023-03-26T18:15:39.191Z,1.57
2023-03-26T18:18:09.607Z,1.60
2023-03-26T18:20:37.774Z,1.80
2023-03-26T18:23:12.928Z,1.50
2023-03-26T18:25:41.001Z,1.50
2023-03-26T18:28:08.230Z,1.70
2023-03-26T18:30:46.580Z,2.00
2023-03-26T18:33:15.578Z,1.93
2023-03-26T18:35:55.370Z,2.53
2023-03-26T18:38:35.688Z,2.10
2023-03-26T18:41:06.766Z,1.40
2023-03-26T18:43:35.617Z,1.90
2023-03-26T18:46:12.247Z,1.50
2023-03-26T18:48:39.551Z,2.40
2023-03-26T18:51:07.359Z,2.20
2023-03-26T18:53:40.014Z,2.90
2023-03-26T18:56:26.001Z,2.47
2023-03-26T18:58:53.122Z,3.20
2023-03-26T19:01:25.985Z,5.20
2023-03-26T19:03:53.905Z,4.03
2023-03-26T19:06:21.269Z,3.13
2023-03-26T19:08:48.648Z,2.57
2023-03-26T19:11:17.406Z,3.10
2023-03-26T19:13:46.322Z,2.07
2023-03-26T19:16:24.009Z,4.17
2023-03-26T19:18:51.662Z,2.20
2023-03-26T19:21:20.098Z,2.30
2023-03-26T19:23:47.898Z,2.40
2023-03-26T19:26:15.976Z,2.30
2023-03-26T19:28:55.892Z,2.03
2023-03-26T19:31:25.814Z,1.90
2023-03-26T19:34:17.681Z,1.60
2023-03-26T19:36:58.165Z,1.40
2023-03-26T19:39:36.824Z,1.00
2023-03-26T19:42:06.404Z,1.20
2023-03-26T19:44:33.685Z,0.93
2023-03-26T19:47:06.274Z,1.27
2023-03-26T19:49:33.444Z,1.30
2023-03-26T19:52:04.659Z,1.47
2023-03-26T19:54:32.026Z,1.20
2023-03-26T19:57:00.991Z,1.40
2023-03-26T19:59:28.128Z,1.30
2023-03-26T20:01:55.439Z,1.40
2023-03-26T20:04:22.661Z,1.20
2023-03-26T20:06:49.740Z,1.30
2023-03-26T20:09:16.833Z,0.93
2023-03-26T20:11:44.000Z,1.10
2023-03-26T20:14:15.485Z,1.00
2023-03-26T20:16:44.959Z,0.93
2023-03-26T20:19:14.043Z,1.00
2023-03-26T20:21:41.686Z,1.00
2023-03-26T20:24:13.257Z,0.90
2023-03-26T20:26:40.395Z,1.00
2023-03-26T20:29:07.690Z,1.07
2023-03-26T20:31:34.910Z,0.87
2023-03-26T20:34:02.011Z,0.80
2023-03-26T20:36:33.369Z,1.00
2023-03-26T20:39:06.062Z,0.80
2023-03-26T20:41:33.717Z,1.00
2023-03-26T20:44:01.353Z,0.80
2023-03-26T20:46:30.961Z,0.83
2023-03-26T20:48:59.565Z,0.70
2023-03-26T20:51:28.504Z,0.77
2023-03-26T20:53:56.162Z,0.70
2023-03-26T20:56:23.669Z,0.60
2023-03-26T20:59:03.685Z,0.43
2023-03-26T21:01:38.192Z,0.80
2023-03-26T21:04:05.717Z,0.83
2023-03-26T21:06:32.953Z,0.70
2023-03-26T21:09:00.252Z,0.80
2023-03-26T21:11:39.871Z,0.80
2023-03-26T21:14:07.917Z,0.80
2023-03-26T21:16:35.275Z,0.87
2023-03-26T21:19:03.035Z,0.70
2023-03-26T21:21:41.849Z,0.60
2023-03-26T21:24:33.146Z,0.57
2023-03-26T21:27:13.687Z,0.50
2023-03-26T21:29:41.188Z,0.70
2023-03-26T21:32:10.393Z,0.70
2023-03-26T21:34:41.987Z,0.77
2023-03-26T21:37:12.594Z,0.70
2023-03-26T21:39:42.250Z,0.63
2023-03-26T21:42:09.567Z,0.93
2023-03-26T21:44:36.739Z,0.80
2023-03-26T21:47:04.283Z,0.77
2023-03-26T21:49:31.612Z,0.80
2023-03-26T21:51:58.941Z,0.80
2023-03-26T21:54:27.877Z,0.80
2023-03-26T21:56:54.954Z,1.07
2023-03-26T21:59:31.372Z,0.87
2023-03-26T22:01:58.451Z,0.90
2023-03-26T22:04:32.840Z,0.80
2023-03-26T22:07:12.166Z,0.77
2023-03-26T22:09:39.517Z,0.80
2023-03-26T22:12:07.190Z,0.63
2023-03-26T22:14:34.445Z,0.80
2023-03-26T22:17:01.580Z,0.87
2023-03-26T22:19:30.358Z,0.60
2023-03-26T22:21:58.300Z,0.80
2023-03-26T22:24:25.986Z,0.80
2023-03-26T22:26:53.238Z,0.50
2023-03-26T22:29:20.328Z,0.40
2023-03-26T22:31:47.460Z,0.60
2023-03-26T22:34:14.572Z,0.70
2023-03-26T22:36:41.801Z,0.63
2023-03-26T22:39:09.087Z,0.50
2023-03-26T22:41:37.073Z,0.73
2023-03-26T22:44:16.898Z,0.40
2023-03-26T22:46:49.302Z,0.60
2023-03-26T22:49:16.754Z,0.60
2023-03-26T22:51:43.883Z,0.40
2023-03-26T22:54:11.065Z,0.50
2023-03-26T22:56:38.339Z,0.50
2023-03-26T22:59:05.429Z,0.60
2023-03-26T23:01:32.641Z,0.40
2023-03-26T23:03:59.837Z,0.60
2023-03-26T23:06:26.982Z,0.40
2023-03-26T23:08:56.871Z,0.30
2023-03-26T23:11:24.544Z,0.33
2023-03-26T23:13:51.824Z,0.47
2023-03-26T23:16:21.705Z,0.20
2023-03-26T23:18:49.015Z,0.10
2023-03-26T23:21:18.168Z,0.23
2023-03-26T23:23:45.849Z,0.20
2023-03-26T23:26:14.460Z,0.20
2023-03-26T23:28:41.622Z,0.30
2023-03-26T23:31:09.524Z,0.40
2023-03-26T23:33:37.996Z,0.30
2023-03-26T23:36:07.462Z,0.33
2023-03-26T23:38:44.079Z,0.50
2023-03-26T23:41:15.859Z,0.50
2023-03-26T23:43:54.331Z,0.43
2023-03-26T23:46:30.187Z,0.47
2023-03-26T23:48:59.994Z,0.60
2023-03-26T23:51:27.264Z,0.50
2023-03-26T23:53:54.577Z,0.70
2023-03-26T23:56:21.810Z,0.80
2023-03-26T23:58:49.048Z,0.80
